Dunbarton, New Hampshire
Current Conditions -  °F | °C
As of 7:51 PM on Monday 26 Jan 2015 (Local Time) from KCON Reporting Station
Overcast Overcast  
Wind Chill:   Ceiling: 2300
Heat Index: 19°   Visibility: 10mi
Dew Point: -1°   Wind: 12mph
Humidity: 42%   Direction: 30°NNE
Pressure: 30.11"   Gusts: NA
Location:  43.11°N, 71.59°W
Report Text: KCON 270051Z AUTO 03010KT 10SM OVC023 M07/M18 A3011 RMK AO2 SLP202 T10721183
Loading
Personal Weather Stations






























Interactive Weather Map New forecast layout! Learn more

10-Day Weather Forecast

Advertisements
Track Severe Weather on mobile